sensor_id;sensor_type;location;lat;lon;timestamp;pressure;altitude;pressure_sealevel;temperature;humidity
68301;BME280;55146;47.468;18.806;2023-06-04T00:01:38;100271.63;;;15.35;55.50
68301;BME280;55146;47.468;18.806;2023-06-04T00:04:03;100277.47;;;15.34;55.21
68301;BME280;55146;47.468;18.806;2023-06-04T00:06:29;100271.63;;;15.35;55.92
68301;BME280;55146;47.468;18.806;2023-06-04T00:08:54;100266.19;;;15.30;55.60
68301;BME280;55146;47.468;18.806;2023-06-04T00:11:20;100271.19;;;15.28;55.80
68301;BME280;55146;47.468;18.806;2023-06-04T00:13:45;100264.81;;;15.28;55.82
68301;BME280;55146;47.468;18.806;2023-06-04T00:16:10;100265.09;;;15.26;56.08
68301;BME280;55146;47.468;18.806;2023-06-04T00:18:36;100266.75;;;15.27;56.46
68301;BME280;55146;47.468;18.806;2023-06-04T00:21:01;100273.44;;;15.26;56.05
68301;BME280;55146;47.468;18.806;2023-06-04T00:23:27;100270.16;;;15.24;56.77
68301;BME280;55146;47.468;18.806;2023-06-04T00:25:52;100268.19;;;15.25;57.54
68301;BME280;55146;47.468;18.806;2023-06-04T00:28:17;100261.59;;;15.21;58.45
68301;BME280;55146;47.468;18.806;2023-06-04T00:30:43;100262.22;;;15.18;58.25
68301;BME280;55146;47.468;18.806;2023-06-04T00:33:08;100270.28;;;15.14;57.92
68301;BME280;55146;47.468;18.806;2023-06-04T00:35:33;100270.91;;;15.11;57.26
68301;BME280;55146;47.468;18.806;2023-06-04T00:37:59;100264.81;;;15.09;58.24
68301;BME280;55146;47.468;18.806;2023-06-04T00:40:24;100267.87;;;15.08;58.63
68301;BME280;55146;47.468;18.806;2023-06-04T00:42:50;100262.72;;;15.01;58.74
68301;BME280;55146;47.468;18.806;2023-06-04T00:45:15;100260.56;;;14.98;58.90
68301;BME280;55146;47.468;18.806;2023-06-04T00:47:43;100264.25;;;14.93;58.67
68301;BME280;55146;47.468;18.806;2023-06-04T00:50:10;100264.00;;;14.90;59.25
68301;BME280;55146;47.468;18.806;2023-06-04T00:52:36;100268.19;;;14.87;59.80
68301;BME280;55146;47.468;18.806;2023-06-04T00:55:02;100260.47;;;14.84;60.26
68301;BME280;55146;47.468;18.806;2023-06-04T00:57:27;100269.38;;;14.81;60.00
68301;BME280;55146;47.468;18.806;2023-06-04T00:59:53;100263.34;;;14.79;60.51
68301;BME280;55146;47.468;18.806;2023-06-04T01:02:21;100258.38;;;14.76;60.65
68301;BME280;55146;47.468;18.806;2023-06-04T01:05:03;100265.34;;;14.74;61.03
68301;BME280;55146;47.468;18.806;2023-06-04T01:07:33;100259.88;;;14.69;61.22
68301;BME280;55146;47.468;18.806;2023-06-04T01:10:00;100254.63;;;14.67;61.23
68301;BME280;55146;47.468;18.806;2023-06-04T01:12:25;100254.63;;;14.67;61.13
68301;BME280;55146;47.468;18.806;2023-06-04T01:14:51;100254.72;;;14.62;60.69
68301;BME280;55146;47.468;18.806;2023-06-04T01:17:23;100261.37;;;14.61;60.70
68301;BME280;55146;47.468;18.806;2023-06-04T01:20:27;100262.47;;;14.60;60.72
68301;BME280;55146;47.468;18.806;2023-06-04T01:25:41;100264.63;;;14.63;61.72
68301;BME280;55146;47.468;18.806;2023-06-04T01:28:09;100263.31;;;14.61;61.27
68301;BME280;55146;47.468;18.806;2023-06-04T01:30:38;100272.03;;;14.49;59.99
68301;BME280;55146;47.468;18.806;2023-06-04T01:33:09;100267.97;;;14.41;57.50
68301;BME280;55146;47.468;18.806;2023-06-04T01:35:35;100259.84;;;14.50;54.00
68301;BME280;55146;47.468;18.806;2023-06-04T01:38:00;100264.91;;;14.43;57.19
68301;BME280;55146;47.468;18.806;2023-06-04T01:40:25;100266.56;;;14.44;58.60
68301;BME280;55146;47.468;18.806;2023-06-04T01:42:51;100252.47;;;14.40;56.45
68301;BME280;55146;47.468;18.806;2023-06-04T01:45:17;100257.19;;;14.40;57.32
68301;BME280;55146;47.468;18.806;2023-06-04T01:47:43;100258.50;;;14.47;57.00
68301;BME280;55146;47.468;18.806;2023-06-04T01:50:08;100268.31;;;14.35;55.86
68301;BME280;55146;47.468;18.806;2023-06-04T01:52:38;100258.50;;;14.47;56.90
68301;BME280;55146;47.468;18.806;2023-06-04T01:55:09;100265.53;;;14.58;57.93
68301;BME280;55146;47.468;18.806;2023-06-04T01:57:37;100262.69;;;14.64;57.29
68301;BME280;55146;47.468;18.806;2023-06-04T02:00:04;100264.81;;;14.72;57.58
68301;BME280;55146;47.468;18.806;2023-06-04T02:02:32;100271.72;;;14.74;57.24
68301;BME280;55146;47.468;18.806;2023-06-04T02:04:58;100269.78;;;14.75;56.94
68301;BME280;55146;47.468;18.806;2023-06-04T02:07:23;100277.47;;;14.78;57.13
68301;BME280;55146;47.468;18.806;2023-06-04T02:09:49;100271.94;;;14.78;56.75
68301;BME280;55146;47.468;18.806;2023-06-04T02:12:15;100275.53;;;14.78;57.61
68301;BME280;55146;47.468;18.806;2023-06-04T02:14:40;100274.47;;;14.74;57.53
68301;BME280;55146;47.468;18.806;2023-06-04T02:17:11;100272.84;;;14.73;57.86
68301;BME280;55146;47.468;18.806;2023-06-04T02:19:42;100275.34;;;14.70;58.07
68301;BME280;55146;47.468;18.806;2023-06-04T02:22:15;100275.34;;;14.70;58.72
68301;BME280;55146;47.468;18.806;2023-06-04T02:24:40;100272.59;;;14.70;59.08
68301;BME280;55146;47.468;18.806;2023-06-04T02:27:11;100271.25;;;14.67;59.63
68301;BME280;55146;47.468;18.806;2023-06-04T02:29:38;100265.19;;;14.65;59.42
68301;BME280;55146;47.468;18.806;2023-06-04T02:32:03;100270.53;;;14.56;58.72
68301;BME280;55146;47.468;18.806;2023-06-04T02:34:29;100273.91;;;14.53;58.74
68301;BME280;55146;47.468;18.806;2023-06-04T02:36:55;100265.59;;;14.53;59.24
68301;BME280;55146;47.468;18.806;2023-06-04T02:39:20;100270.03;;;14.54;59.42
68301;BME280;55146;47.468;18.806;2023-06-04T02:41:46;100268.09;;;14.55;59.32
68301;BME280;55146;47.468;18.806;2023-06-04T02:44:12;100268.09;;;14.55;59.81
68301;BME280;55146;47.468;18.806;2023-06-04T02:46:37;100271.69;;;14.55;60.20
68301;BME280;55146;47.468;18.806;2023-06-04T02:49:03;100270.84;;;14.55;59.25
68301;BME280;55146;47.468;18.806;2023-06-04T02:51:29;100272.78;;;14.54;59.41
68301;BME280;55146;47.468;18.806;2023-06-04T02:53:55;100276.16;;;14.51;59.81
68301;BME280;55146;47.468;18.806;2023-06-04T02:56:20;100279.88;;;14.42;59.87
68301;BME280;55146;47.468;18.806;2023-06-04T02:58:53;100276.28;;;14.41;59.79
68301;BME280;55146;47.468;18.806;2023-06-04T03:01:24;100272.69;;;14.41;60.23
68301;BME280;55146;47.468;18.806;2023-06-04T03:03:50;100278.00;;;14.37;61.07
68301;BME280;55146;47.468;18.806;2023-06-04T03:06:17;100281.09;;;14.31;59.60
68301;BME280;55146;47.468;18.806;2023-06-04T03:08:43;100284.69;;;14.31;60.17
68301;BME280;55146;47.468;18.806;2023-06-04T03:11:08;100280.25;;;14.30;59.69
68301;BME280;55146;47.468;18.806;2023-06-04T03:13:35;100276.06;;;14.33;60.74
68301;BME280;55146;47.468;18.806;2023-06-04T03:16:01;100276.88;;;14.33;60.06
68301;BME280;55146;47.468;18.806;2023-06-04T03:18:27;100266.06;;;14.37;60.91
68301;BME280;55146;47.468;18.806;2023-06-04T03:20:53;100265.00;;;14.38;61.55
68301;BME280;55146;47.468;18.806;2023-06-04T03:23:19;100266.59;;;14.39;62.03
68301;BME280;55146;47.468;18.806;2023-06-04T03:25:44;100277.41;;;14.40;62.69
68301;BME280;55146;47.468;18.806;2023-06-04T03:28:10;100284.59;;;14.41;63.34
68301;BME280;55146;47.468;18.806;2023-06-04T03:30:35;100280.16;;;14.40;63.61
68301;BME280;55146;47.468;18.806;2023-06-04T03:33:00;100283.75;;;14.41;62.97
68301;BME280;55146;47.468;18.806;2023-06-04T03:35:26;100281.81;;;14.41;62.16
68301;BME280;55146;47.468;18.806;2023-06-04T03:37:51;100290.66;;;14.43;62.49
68301;BME280;55146;47.468;18.806;2023-06-04T03:40:16;100292.28;;;14.44;63.24
68301;BME280;55146;47.468;18.806;2023-06-04T03:42:42;100287.28;;;14.46;63.15
68301;BME280;55146;47.468;18.806;2023-06-04T03:45:08;100290.34;;;14.45;63.50
68301;BME280;55146;47.468;18.806;2023-06-04T03:47:33;100290.66;;;14.43;63.73
68301;BME280;55146;47.468;18.806;2023-06-04T03:49:58;100291.50;;;14.44;63.50
68301;BME280;55146;47.468;18.806;2023-06-04T03:52:24;100290.41;;;14.40;62.86
68301;BME280;55146;47.468;18.806;2023-06-04T03:54:49;100294.84;;;14.41;62.75
68301;BME280;55146;47.468;18.806;2023-06-04T03:57:14;100291.06;;;14.27;60.35
68301;BME280;55146;47.468;18.806;2023-06-04T03:59:40;100299.72;;;14.20;58.38
68301;BME280;55146;47.468;18.806;2023-06-04T04:02:05;100301.72;;;14.14;52.95
68301;BME280;55146;47.468;18.806;2023-06-04T04:04:31;100305.16;;;14.30;55.54
68301;BME280;55146;47.468;18.806;2023-06-04T04:06:58;100302.56;;;14.44;58.34
68301;BME280;55146;47.468;18.806;2023-06-04T04:09:25;100306.31;;;14.53;57.86
68301;BME280;55146;47.468;18.806;2023-06-04T04:11:51;100311.13;;;14.66;55.02
68301;BME280;55146;47.468;18.806;2023-06-04T04:14:16;100304.03;;;14.79;55.28
68301;BME280;55146;47.468;18.806;2023-06-04T04:16:42;100315.81;;;14.89;56.49
68301;BME280;55146;47.468;18.806;2023-06-04T04:19:07;100307.38;;;15.00;57.27
68301;BME280;55146;47.468;18.806;2023-06-04T04:21:36;100304.97;;;15.12;57.52
68301;BME280;55146;47.468;18.806;2023-06-04T04:24:02;100308.41;;;15.22;56.79
68301;BME280;55146;47.468;18.806;2023-06-04T04:26:28;100314.09;;;15.31;56.09
68301;BME280;55146;47.468;18.806;2023-06-04T04:28:54;100313.12;;;15.41;54.50
68301;BME280;55146;47.468;18.806;2023-06-04T04:31:26;100316.34;;;15.48;53.08
68301;BME280;55146;47.468;18.806;2023-06-04T04:33:55;100324.63;;;15.53;57.22
68301;BME280;55146;47.468;18.806;2023-06-04T04:36:20;100321.75;;;15.58;56.88
68301;BME280;55146;47.468;18.806;2023-06-04T04:38:45;100323.84;;;15.66;56.68
68301;BME280;55146;47.468;18.806;2023-06-04T04:41:11;100325.13;;;15.73;55.71
68301;BME280;55146;47.468;18.806;2023-06-04T04:43:37;100329.22;;;15.76;55.41
68301;BME280;55146;47.468;18.806;2023-06-04T04:46:06;100322.25;;;15.78;54.49
68301;BME280;55146;47.468;18.806;2023-06-04T04:48:32;100327.41;;;15.85;54.36
68301;BME280;55146;47.468;18.806;2023-06-04T04:50:57;100326.59;;;15.85;53.15
68301;BME280;55146;47.468;18.806;2023-06-04T04:53:23;100327.31;;;15.90;53.40
68301;BME280;55146;47.468;18.806;2023-06-04T04:55:48;100331.94;;;15.95;53.23
68301;BME280;55146;47.468;18.806;2023-06-04T04:58:14;100323.62;;;15.95;53.51
68301;BME280;55146;47.468;18.806;2023-06-04T05:00:40;100325.81;;;15.98;53.11
68301;BME280;55146;47.468;18.806;2023-06-04T05:03:05;100328.34;;;15.94;49.96
68301;BME280;55146;47.468;18.806;2023-06-04T05:05:32;100321.06;;;15.98;52.35
68301;BME280;55146;47.468;18.806;2023-06-04T05:07:58;100324.34;;;16.00;52.33
68301;BME280;55146;47.468;18.806;2023-06-04T05:10:23;100328.56;;;15.98;51.41
68301;BME280;55146;47.468;18.806;2023-06-04T05:13:07;100336.50;;;16.04;54.13
68301;BME280;55146;47.468;18.806;2023-06-04T05:15:32;100336.09;;;16.11;53.41
68301;BME280;55146;47.468;18.806;2023-06-04T05:17:58;100336.63;;;16.13;52.28
68301;BME280;55146;47.468;18.806;2023-06-04T05:20:26;100344.94;;;16.13;51.01
68301;BME280;55146;47.468;18.806;2023-06-04T05:22:52;100344.84;;;16.18;55.67
68301;BME280;55146;47.468;18.806;2023-06-04T05:25:17;100345.91;;;16.22;54.89
68301;BME280;55146;47.468;18.806;2023-06-04T05:27:43;100354.12;;;16.27;55.61
68301;BME280;55146;47.468;18.806;2023-06-04T05:30:09;100347.66;;;16.32;52.31
68301;BME280;55146;47.468;18.806;2023-06-04T05:32:35;100352.91;;;16.33;49.62
68301;BME280;55146;47.468;18.806;2023-06-04T05:35:05;100352.59;;;16.35;49.98
68301;BME280;55146;47.468;18.806;2023-06-04T05:37:32;100346.41;;;16.24;48.96
68301;BME280;55146;47.468;18.806;2023-06-04T05:39:59;100342.41;;;16.30;49.20
68301;BME280;55146;47.468;18.806;2023-06-04T05:42:25;100349.19;;;16.38;49.37
68301;BME280;55146;47.468;18.806;2023-06-04T05:44:50;100345.69;;;16.32;48.69
68301;BME280;55146;47.468;18.806;2023-06-04T05:47:16;100345.00;;;16.40;48.76
68301;BME280;55146;47.468;18.806;2023-06-04T05:49:42;100345.41;;;16.47;50.36
68301;BME280;55146;47.468;18.806;2023-06-04T05:52:07;100338.09;;;16.51;50.37
68301;BME280;55146;47.468;18.806;2023-06-04T05:54:33;100345.13;;;16.63;50.84
68301;BME280;55146;47.468;18.806;2023-06-04T05:56:58;100340.72;;;16.75;49.38
68301;BME280;55146;47.468;18.806;2023-06-04T05:59:23;100350.88;;;16.80;49.32
68301;BME280;55146;47.468;18.806;2023-06-04T06:01:49;100337.62;;;16.90;48.44
68301;BME280;55146;47.468;18.806;2023-06-04T06:04:15;100354.38;;;17.13;47.13
68301;BME280;55146;47.468;18.806;2023-06-04T06:06:41;100364.53;;;17.17;46.87
68301;BME280;55146;47.468;18.806;2023-06-04T06:09:09;100371.75;;;17.18;46.63
68301;BME280;55146;47.468;18.806;2023-06-04T06:11:35;100375.91;;;17.07;48.88
68301;BME280;55146;47.468;18.806;2023-06-04T06:14:01;100380.09;;;17.05;49.61
68301;BME280;55146;47.468;18.806;2023-06-04T06:16:26;100376.09;;;17.11;48.36
68301;BME280;55146;47.468;18.806;2023-06-04T06:18:52;100379.91;;;17.15;48.44
68301;BME280;55146;47.468;18.806;2023-06-04T06:21:18;100373.00;;;17.12;48.54
68301;BME280;55146;47.468;18.806;2023-06-04T06:23:43;100378.56;;;17.12;49.28
68301;BME280;55146;47.468;18.806;2023-06-04T06:26:08;100379.69;;;17.11;49.71
68301;BME280;55146;47.468;18.806;2023-06-04T06:28:34;100370.09;;;17.17;48.77
68301;BME280;55146;47.468;18.806;2023-06-04T06:31:01;100378.31;;;17.22;48.31
68301;BME280;55146;47.468;18.806;2023-06-04T06:33:26;100374.94;;;17.25;49.49
68301;BME280;55146;47.468;18.806;2023-06-04T06:35:52;100379.34;;;17.40;49.03
68301;BME280;55146;47.468;18.806;2023-06-04T06:38:17;100388.06;;;17.47;47.60
68301;BME280;55146;47.468;18.806;2023-06-04T06:40:43;100397.63;;;17.55;46.62
68301;BME280;55146;47.468;18.806;2023-06-04T06:43:08;100400.22;;;17.65;47.94
68301;BME280;55146;47.468;18.806;2023-06-04T06:45:35;100406.28;;;17.67;48.28
68301;BME280;55146;47.468;18.806;2023-06-04T06:48:01;100402.09;;;17.78;49.65
68301;BME280;55146;47.468;18.806;2023-06-04T06:50:26;100406.19;;;17.94;49.28
68301;BME280;55146;47.468;18.806;2023-06-04T06:52:51;100397.88;;;18.03;47.59
68301;BME280;55146;47.468;18.806;2023-06-04T06:55:16;100400.47;;;18.22;46.01
68301;BME280;55146;47.468;18.806;2023-06-04T06:57:43;100406.78;;;18.36;45.57
68301;BME280;55146;47.468;18.806;2023-06-04T07:00:09;100405.22;;;18.43;45.71
68301;BME280;55146;47.468;18.806;2023-06-04T07:02:34;100401.75;;;18.46;45.65
68301;BME280;55146;47.468;18.806;2023-06-04T07:04:59;100406.84;;;18.44;44.64
68301;BME280;55146;47.468;18.806;2023-06-04T07:07:25;100407.03;;;18.48;46.26
68301;BME280;55146;47.468;18.806;2023-06-04T07:09:51;100406.22;;;18.70;48.06
68301;BME280;55146;47.468;18.806;2023-06-04T07:12:17;100400.47;;;18.75;46.85
68301;BME280;55146;47.468;18.806;2023-06-04T07:14:42;100403.97;;;18.89;45.21
68301;BME280;55146;47.468;18.806;2023-06-04T07:17:08;100403.84;;;18.94;44.59
68301;BME280;55146;47.468;18.806;2023-06-04T07:19:33;100398.44;;;18.97;47.46
68301;BME280;55146;47.468;18.806;2023-06-04T07:21:58;100402.91;;;19.16;41.82
68301;BME280;55146;47.468;18.806;2023-06-04T07:24:24;100409.47;;;19.11;44.46
68301;BME280;55146;47.468;18.806;2023-06-04T07:26:49;100407.50;;;19.20;44.88
68301;BME280;55146;47.468;18.806;2023-06-04T07:29:15;100413.16;;;19.37;43.72
68301;BME280;55146;47.468;18.806;2023-06-04T07:31:41;100416.31;;;19.70;41.50
68301;BME280;55146;47.468;18.806;2023-06-04T07:34:06;100409.75;;;20.09;41.05
68301;BME280;55146;47.468;18.806;2023-06-04T07:36:32;100408.56;;;20.53;41.21
68301;BME280;55146;47.468;18.806;2023-06-04T07:38:58;100402.81;;;20.96;39.86
68301;BME280;55146;47.468;18.806;2023-06-04T07:41:23;100409.00;;;21.11;41.87
68301;BME280;55146;47.468;18.806;2023-06-04T07:43:50;100405.72;;;21.38;41.71
68301;BME280;55146;47.468;18.806;2023-06-04T07:46:15;100401.66;;;21.77;39.14
68301;BME280;55146;47.468;18.806;2023-06-04T07:48:44;100405.22;;;22.07;37.88
68301;BME280;55146;47.468;18.806;2023-06-04T07:51:09;100406.47;;;22.30;35.97
68301;BME280;55146;47.468;18.806;2023-06-04T07:53:36;100408.00;;;22.28;37.01
68301;BME280;55146;47.468;18.806;2023-06-04T07:56:03;100408.22;;;22.35;36.16
68301;BME280;55146;47.468;18.806;2023-06-04T07:58:28;100403.56;;;22.27;38.09
68301;BME280;55146;47.468;18.806;2023-06-04T08:00:54;100407.06;;;22.36;36.75
68301;BME280;55146;47.468;18.806;2023-06-04T08:03:19;100419.56;;;22.26;36.11
68301;BME280;55146;47.468;18.806;2023-06-04T08:05:45;100418.47;;;22.18;36.84
68301;BME280;55146;47.468;18.806;2023-06-04T08:08:11;100413.97;;;22.05;35.36
68301;BME280;55146;47.468;18.806;2023-06-04T08:10:36;100422.81;;;21.95;35.29
68301;BME280;55146;47.468;18.806;2023-06-04T08:13:02;100420.84;;;21.66;37.88
68301;BME280;55146;47.468;18.806;2023-06-04T08:15:27;100412.72;;;21.53;38.10
68301;BME280;55146;47.468;18.806;2023-06-04T08:17:53;100419.22;;;21.36;38.67
68301;BME280;55146;47.468;18.806;2023-06-04T08:20:18;100422.09;;;21.27;38.27
68301;BME280;55146;47.468;18.806;2023-06-04T08:22:44;100424.78;;;21.07;38.30
68301;BME280;55146;47.468;18.806;2023-06-04T08:25:09;100425.00;;;20.93;39.46
68301;BME280;55146;47.468;18.806;2023-06-04T08:27:35;100432.00;;;20.70;40.22
68301;BME280;55146;47.468;18.806;2023-06-04T08:30:00;100429.09;;;20.57;40.46
68301;BME280;55146;47.468;18.806;2023-06-04T08:32:27;100430.09;;;20.44;40.22
68301;BME280;55146;47.468;18.806;2023-06-04T08:34:52;100435.69;;;20.27;42.12
68301;BME280;55146;47.468;18.806;2023-06-04T08:37:17;100428.47;;;20.26;41.59
68301;BME280;55146;47.468;18.806;2023-06-04T08:39:43;100429.47;;;20.22;42.73
68301;BME280;55146;47.468;18.806;2023-06-04T08:42:15;100429.12;;;20.23;42.78
68301;BME280;55146;47.468;18.806;2023-06-04T08:44:46;100425.38;;;20.10;43.09
68301;BME280;55146;47.468;18.806;2023-06-04T08:47:12;100426.38;;;19.97;44.50
68301;BME280;55146;47.468;18.806;2023-06-04T08:49:43;100421.41;;;19.94;43.71
68301;BME280;55146;47.468;18.806;2023-06-04T08:52:11;100423.41;;;20.02;43.11
68301;BME280;55146;47.468;18.806;2023-06-04T08:54:37;100421.94;;;19.96;44.17
68301;BME280;55146;47.468;18.806;2023-06-04T08:57:03;100426.03;;;19.99;45.10
68301;BME280;55146;47.468;18.806;2023-06-04T08:59:29;100431.47;;;20.04;44.75
68301;BME280;55146;47.468;18.806;2023-06-04T09:01:55;100436.06;;;19.91;44.87
68301;BME280;55146;47.468;18.806;2023-06-04T09:04:21;100427.66;;;19.83;45.86
68301;BME280;55146;47.468;18.806;2023-06-04T09:06:47;100431.13;;;19.88;44.35
68301;BME280;55146;47.468;18.806;2023-06-04T09:09:14;100427.34;;;19.93;44.84
68301;BME280;55146;47.468;18.806;2023-06-04T09:12:10;100424.22;;;19.94;44.17
68301;BME280;55146;47.468;18.806;2023-06-04T09:14:36;100426.69;;;20.04;44.70
68301;BME280;55146;47.468;18.806;2023-06-04T09:17:02;100430.44;;;20.00;45.45
68301;BME280;55146;47.468;18.806;2023-06-04T09:19:27;100424.72;;;20.05;46.07
68301;BME280;55146;47.468;18.806;2023-06-04T09:21:55;100427.03;;;20.11;46.17
68301;BME280;55146;47.468;18.806;2023-06-04T09:24:22;100426.19;;;20.11;46.01
68301;BME280;55146;47.468;18.806;2023-06-04T09:26:48;100428.47;;;20.00;47.42
68301;BME280;55146;47.468;18.806;2023-06-04T09:29:14;100430.44;;;20.00;47.35
68301;BME280;55146;47.468;18.806;2023-06-04T09:31:40;100430.31;;;20.05;46.53
68301;BME280;55146;47.468;18.806;2023-06-04T09:34:06;100429.66;;;19.99;47.26
68301;BME280;55146;47.468;18.806;2023-06-04T09:36:33;100435.41;;;20.03;46.59
68301;BME280;55146;47.468;18.806;2023-06-04T09:39:00;100437.03;;;20.04;46.35
68301;BME280;55146;47.468;18.806;2023-06-04T09:41:25;100435.72;;;20.01;46.04
68301;BME280;55146;47.468;18.806;2023-06-04T09:43:58;100429.31;;;20.01;45.38
68301;BME280;55146;47.468;18.806;2023-06-04T09:46:24;100435.56;;;19.98;45.99
68301;BME280;55146;47.468;18.806;2023-06-04T09:49:03;100432.59;;;19.94;45.37
68301;BME280;55146;47.468;18.806;2023-06-04T09:51:29;100434.56;;;19.94;45.16
68301;BME280;55146;47.468;18.806;2023-06-04T09:53:55;100437.03;;;19.95;45.19
68301;BME280;55146;47.468;18.806;2023-06-04T09:56:22;100434.25;;;19.95;45.25
68301;BME280;55146;47.468;18.806;2023-06-04T09:58:54;100434.75;;;19.97;45.40
68301;BME280;55146;47.468;18.806;2023-06-04T10:01:20;100442.31;;;20.05;46.22
68301;BME280;55146;47.468;18.806;2023-06-04T10:03:50;100441.47;;;20.13;46.48
68301;BME280;55146;47.468;18.806;2023-06-04T10:06:19;100442.59;;;20.21;45.26
68301;BME280;55146;47.468;18.806;2023-06-04T10:08:45;100440.78;;;20.25;45.05
68301;BME280;55146;47.468;18.806;2023-06-04T10:11:11;100436.69;;;20.40;50.36
68301;BME280;55146;47.468;18.806;2023-06-04T10:13:48;100435.69;;;20.44;47.14
68301;BME280;55146;47.468;18.806;2023-06-04T10:16:18;100436.00;;;20.51;47.53
68301;BME280;55146;47.468;18.806;2023-06-04T10:18:45;100449.31;;;20.63;47.99
68301;BME280;55146;47.468;18.806;2023-06-04T10:21:13;100440.59;;;20.65;45.39
68301;BME280;55146;47.468;18.806;2023-06-04T10:23:39;100438.28;;;20.67;45.73
68301;BME280;55146;47.468;18.806;2023-06-04T10:26:06;100444.84;;;20.71;46.53
68301;BME280;55146;47.468;18.806;2023-06-04T10:28:33;100442.19;;;20.74;46.17
68301;BME280;55146;47.468;18.806;2023-06-04T10:30:58;100433.66;;;20.71;46.28
68301;BME280;55146;47.468;18.806;2023-06-04T10:33:24;100444.53;;;20.72;46.85
68301;BME280;55146;47.468;18.806;2023-06-04T10:35:52;100442.06;;;20.62;45.75
68301;BME280;55146;47.468;18.806;2023-06-04T10:38:18;100443.91;;;20.58;46.29
68301;BME280;55146;47.468;18.806;2023-06-04T10:40:45;100441.09;;;20.58;48.57
68301;BME280;55146;47.468;18.806;2023-06-04T10:43:12;100447.50;;;20.58;49.98
68301;BME280;55146;47.468;18.806;2023-06-04T10:45:38;100438.31;;;20.58;49.94
68301;BME280;55146;47.468;18.806;2023-06-04T10:48:06;100443.25;;;20.52;50.08
68301;BME280;55146;47.468;18.806;2023-06-04T10:50:33;100445.03;;;20.57;51.06
68301;BME280;55146;47.468;18.806;2023-06-04T10:52:59;100439.31;;;20.53;50.15
68301;BME280;55146;47.468;18.806;2023-06-04T10:55:28;100443.25;;;20.61;48.58
68301;BME280;55146;47.468;18.806;2023-06-04T10:57:55;100439.63;;;20.61;49.09
68301;BME280;55146;47.468;18.806;2023-06-04T11:00:21;100440.91;;;20.63;52.04
68301;BME280;55146;47.468;18.806;2023-06-04T11:03:06;100443.19;;;20.70;52.48
68301;BME280;55146;47.468;18.806;2023-06-04T11:05:42;100436.47;;;20.71;49.17
68301;BME280;55146;47.468;18.806;2023-06-04T11:08:09;100440.06;;;20.71;48.31
68301;BME280;55146;47.468;18.806;2023-06-04T11:10:43;100443.19;;;20.70;47.90
68301;BME280;55146;47.468;18.806;2023-06-04T11:13:09;100438.94;;;20.64;49.73
68301;BME280;55146;47.468;18.806;2023-06-04T11:18:03;100443.25;;;20.61;50.16
68301;BME280;55146;47.468;18.806;2023-06-04T11:20:28;100436.00;;;20.60;51.40
68301;BME280;55146;47.468;18.806;2023-06-04T11:22:55;100435.72;;;20.36;48.96
68301;BME280;55146;47.468;18.806;2023-06-04T11:25:25;100436.87;;;20.35;48.89
68301;BME280;55146;47.468;18.806;2023-06-04T11:27:53;100433.91;;;20.40;50.04
68301;BME280;55146;47.468;18.806;2023-06-04T11:30:19;100429.12;;;20.40;50.12
68301;BME280;55146;47.468;18.806;2023-06-04T11:32:45;100430.78;;;20.41;52.49
68301;BME280;55146;47.468;18.806;2023-06-04T11:35:10;100434.88;;;20.44;52.72
68301;BME280;55146;47.468;18.806;2023-06-04T11:37:39;100428.97;;;20.45;53.13
68301;BME280;55146;47.468;18.806;2023-06-04T11:40:18;100438.66;;;20.48;53.80
68301;BME280;55146;47.468;18.806;2023-06-04T11:42:45;100436.19;;;20.46;53.01
68301;BME280;55146;47.468;18.806;2023-06-04T11:45:16;100440.81;;;20.42;52.84
68301;BME280;55146;47.468;18.806;2023-06-04T11:47:47;100440.66;;;20.39;52.69
68301;BME280;55146;47.468;18.806;2023-06-04T11:50:13;100447.56;;;20.41;53.10
68301;BME280;55146;47.468;18.806;2023-06-04T11:52:40;100439.47;;;20.31;51.47
68301;BME280;55146;47.468;18.806;2023-06-04T11:55:09;100438.62;;;20.31;52.54
68301;BME280;55146;47.468;18.806;2023-06-04T11:57:36;100444.59;;;20.29;53.22
68301;BME280;55146;47.468;18.806;2023-06-04T12:00:01;100436.53;;;20.28;52.61
68301;BME280;55146;47.468;18.806;2023-06-04T12:02:27;100447.03;;;20.31;54.07
68301;BME280;55146;47.468;18.806;2023-06-04T12:04:52;100442.59;;;20.21;52.05
68301;BME280;55146;47.468;18.806;2023-06-04T12:07:21;100442.44;;;20.26;53.14
68301;BME280;55146;47.468;18.806;2023-06-04T12:09:52;100439.31;;;20.28;49.79
68301;BME280;55146;47.468;18.806;2023-06-04T12:12:21;100438.03;;;20.34;50.05
68301;BME280;55146;47.468;18.806;2023-06-04T12:14:56;100432.09;;;20.27;47.47
68301;BME280;55146;47.468;18.806;2023-06-04T12:17:22;100435.56;;;20.32;48.58
68301;BME280;55146;47.468;18.806;2023-06-04T12:19:49;100432.75;;;20.32;48.43
68301;BME280;55146;47.468;18.806;2023-06-04T12:22:15;100435.69;;;20.27;49.61
68301;BME280;55146;47.468;18.806;2023-06-04T12:24:51;100438.50;;;20.27;49.90
68301;BME280;55146;47.468;18.806;2023-06-04T12:27:21;100434.91;;;20.35;50.64
68301;BME280;55146;47.468;18.806;2023-06-04T12:30:16;100430.75;;;20.50;52.26
68301;BME280;55146;47.468;18.806;2023-06-04T12:32:41;100426.47;;;20.61;51.96
68301;BME280;55146;47.468;18.806;2023-06-04T12:35:07;100424.47;;;20.62;50.96
68301;BME280;55146;47.468;18.806;2023-06-04T12:37:33;100425.94;;;20.68;51.64
68301;BME280;55146;47.468;18.806;2023-06-04T12:39:58;100423.13;;;20.76;52.94
68301;BME280;55146;47.468;18.806;2023-06-04T12:42:29;100419.81;;;20.83;54.58
68301;BME280;55146;47.468;18.806;2023-06-04T12:44:55;100425.53;;;20.86;53.87